sensor_id;sensor_type;location;lat;lon;timestamp;pressure;altitude;pressure_sealevel;temperature;humidity
62051;BME280;48008;51.204;6.766;2023-02-02T00:01:32;101594.75;;;7.07;92.21
62051;BME280;48008;51.204;6.766;2023-02-02T00:03:59;101587.44;;;6.86;93.38
62051;BME280;48008;51.204;6.766;2023-02-02T00:06:28;101591.53;;;6.90;93.38
62051;BME280;48008;51.204;6.766;2023-02-02T00:08:57;101589.00;;;6.89;94.00
62051;BME280;48008;51.204;6.766;2023-02-02T00:11:24;101586.59;;;6.86;93.93
62051;BME280;48008;51.204;6.766;2023-02-02T00:13:51;101593.88;;;6.95;93.92
62051;BME280;48008;51.204;6.766;2023-02-02T00:19:07;101583.41;;;6.94;93.88
62051;BME280;48008;51.204;6.766;2023-02-02T00:21:35;101588.69;;;6.94;94.41
62051;BME280;48008;51.204;6.766;2023-02-02T00:24:01;101572.78;;;6.82;94.85
62051;BME280;48008;51.204;6.766;2023-02-02T00:26:28;101578.56;;;6.87;94.74
62051;BME280;48008;51.204;6.766;2023-02-02T00:28:55;101577.16;;;6.95;94.40
62051;BME280;48008;51.204;6.766;2023-02-02T00:31:22;101579.28;;;7.02;94.29
62051;BME280;48008;51.204;6.766;2023-02-02T00:33:50;101571.22;;;7.04;93.91
62051;BME280;48008;51.204;6.766;2023-02-02T00:36:18;101572.09;;;7.04;94.01
62051;BME280;48008;51.204;6.766;2023-02-02T00:38:47;101574.97;;;6.88;94.19
62051;BME280;48008;51.204;6.766;2023-02-02T00:41:15;101572.94;;;7.05;94.31
62051;BME280;48008;51.204;6.766;2023-02-02T00:43:42;101565.50;;;6.86;95.40
62051;BME280;48008;51.204;6.766;2023-02-02T00:46:12;101575.72;;;6.90;96.55
62051;BME280;48008;51.204;6.766;2023-02-02T00:48:39;101568.63;;;6.91;96.67
62051;BME280;48008;51.204;6.766;2023-02-02T00:51:06;101573.00;;;6.79;97.21
62051;BME280;48008;51.204;6.766;2023-02-02T00:53:34;101574.81;;;6.79;96.90
62051;BME280;48008;51.204;6.766;2023-02-02T00:56:01;101572.91;;;6.81;97.76
62051;BME280;48008;51.204;6.766;2023-02-02T00:58:27;101565.94;;;6.80;98.82
62051;BME280;48008;51.204;6.766;2023-02-02T01:00:55;101573.63;;;6.83;98.92
62051;BME280;48008;51.204;6.766;2023-02-02T01:03:22;101584.91;;;6.85;99.17
62051;BME280;48008;51.204;6.766;2023-02-02T01:05:48;101579.75;;;6.83;99.26
62051;BME280;48008;51.204;6.766;2023-02-02T01:08:17;101585.97;;;6.82;98.54
62051;BME280;48008;51.204;6.766;2023-02-02T01:10:44;101589.78;;;6.65;99.00
62051;BME280;48008;51.204;6.766;2023-02-02T01:13:10;101590.50;;;6.80;98.30
62051;BME280;48008;51.204;6.766;2023-02-02T01:15:37;101595.34;;;6.86;97.63
62051;BME280;48008;51.204;6.766;2023-02-02T01:18:04;101599.16;;;6.82;98.13
62051;BME280;48008;51.204;6.766;2023-02-02T01:20:31;101601.16;;;6.91;97.55
62051;BME280;48008;51.204;6.766;2023-02-02T01:22:58;101599.25;;;6.94;97.61
62051;BME280;48008;51.204;6.766;2023-02-02T01:25:24;101602.44;;;6.86;98.25
62051;BME280;48008;51.204;6.766;2023-02-02T01:27:53;101610.22;;;6.87;98.51
62051;BME280;48008;51.204;6.766;2023-02-02T01:30:20;101606.63;;;6.88;99.18
62051;BME280;48008;51.204;6.766;2023-02-02T01:32:47;101612.22;;;6.84;99.67
62051;BME280;48008;51.204;6.766;2023-02-02T01:35:14;101605.47;;;6.92;98.79
62051;BME280;48008;51.204;6.766;2023-02-02T01:37:40;101604.84;;;6.89;99.63
62051;BME280;48008;51.204;6.766;2023-02-02T01:40:08;101606.00;;;6.85;99.53
62051;BME280;48008;51.204;6.766;2023-02-02T01:42:36;101612.47;;;6.81;100.00
62051;BME280;48008;51.204;6.766;2023-02-02T01:45:23;101611.59;;;6.80;100.00
62051;BME280;48008;51.204;6.766;2023-02-02T01:47:55;101605.59;;;6.78;100.00
62051;BME280;48008;51.204;6.766;2023-02-02T01:50:27;101603.28;;;6.73;100.00
62051;BME280;48008;51.204;6.766;2023-02-02T01:52:57;101607.41;;;6.78;99.86
62051;BME280;48008;51.204;6.766;2023-02-02T01:55:27;101609.59;;;6.71;100.00
62051;BME280;48008;51.204;6.766;2023-02-02T01:58:04;101615.47;;;6.87;99.72
62051;BME280;48008;51.204;6.766;2023-02-02T02:00:31;101619.00;;;6.88;99.99
62051;BME280;48008;51.204;6.766;2023-02-02T02:03:01;101625.84;;;6.78;100.00
62051;BME280;48008;51.204;6.766;2023-02-02T02:05:39;101612.88;;;6.75;100.00
62051;BME280;48008;51.204;6.766;2023-02-02T02:08:14;101623.84;;;6.81;99.88
62051;BME280;48008;51.204;6.766;2023-02-02T02:10:42;101619.41;;;6.82;100.00
62051;BME280;48008;51.204;6.766;2023-02-02T02:13:09;101614.78;;;6.72;100.00
62051;BME280;48008;51.204;6.766;2023-02-02T02:16:00;101614.16;;;6.69;100.00
62051;BME280;48008;51.204;6.766;2023-02-02T02:19:45;101606.84;;;6.85;100.00
62051;BME280;48008;51.204;6.766;2023-02-02T02:22:13;101603.94;;;6.64;100.00
62051;BME280;48008;51.204;6.766;2023-02-02T02:29:31;101598.56;;;6.66;100.00
62051;BME280;48008;51.204;6.766;2023-02-02T02:37:49;101595.72;;;6.56;100.00
62051;BME280;48008;51.204;6.766;2023-02-02T02:40:27;101591.59;;;6.52;100.00
62051;BME280;48008;51.204;6.766;2023-02-02T02:42:58;101603.94;;;6.51;100.00
62051;BME280;48008;51.204;6.766;2023-02-02T02:45:28;101600.69;;;6.61;100.00
62051;BME280;48008;51.204;6.766;2023-02-02T02:47:55;101594.66;;;6.59;100.00
62051;BME280;48008;51.204;6.766;2023-02-02T02:50:24;101590.13;;;6.61;100.00
62051;BME280;48008;51.204;6.766;2023-02-02T02:52:59;101593.06;;;6.56;100.00
62051;BME280;48008;51.204;6.766;2023-02-02T02:55:35;101593.09;;;6.43;100.00
62051;BME280;48008;51.204;6.766;2023-02-02T02:58:09;101598.13;;;6.59;100.00
62051;BME280;48008;51.204;6.766;2023-02-02T03:00:54;101602.69;;;6.57;100.00
62051;BME280;48008;51.204;6.766;2023-02-02T03:03:33;101602.06;;;6.53;100.00
62051;BME280;48008;51.204;6.766;2023-02-02T03:06:22;101607.72;;;6.47;100.00
62051;BME280;48008;51.204;6.766;2023-02-02T03:08:58;101612.59;;;6.53;100.00
62051;BME280;48008;51.204;6.766;2023-02-02T03:11:27;101609.72;;;6.57;100.00
62051;BME280;48008;51.204;6.766;2023-02-02T03:13:55;101606.16;;;6.45;100.00
62051;BME280;48008;51.204;6.766;2023-02-02T03:16:22;101606.69;;;6.50;100.00
62051;BME280;48008;51.204;6.766;2023-02-02T03:18:49;101616.91;;;6.54;100.00
62051;BME280;48008;51.204;6.766;2023-02-02T03:21:16;101609.44;;;6.48;100.00
62051;BME280;48008;51.204;6.766;2023-02-02T03:23:43;101612.50;;;6.55;100.00
62051;BME280;48008;51.204;6.766;2023-02-02T03:26:10;101612.16;;;6.47;100.00
62051;BME280;48008;51.204;6.766;2023-02-02T03:28:36;101608.16;;;6.41;100.00
62051;BME280;48008;51.204;6.766;2023-02-02T03:31:03;101604.47;;;6.44;100.00
62051;BME280;48008;51.204;6.766;2023-02-02T03:33:32;101606.16;;;6.58;100.00
62051;BME280;48008;51.204;6.766;2023-02-02T03:36:01;101615.44;;;6.50;100.00
62051;BME280;48008;51.204;6.766;2023-02-02T03:38:28;101616.41;;;6.49;100.00
62051;BME280;48008;51.204;6.766;2023-02-02T03:40:55;101603.81;;;6.40;100.00
62051;BME280;48008;51.204;6.766;2023-02-02T03:43:22;101616.38;;;6.37;100.00
62051;BME280;48008;51.204;6.766;2023-02-02T03:45:58;101609.22;;;6.39;100.00
62051;BME280;48008;51.204;6.766;2023-02-02T03:48:25;101604.69;;;6.41;100.00
62051;BME280;48008;51.204;6.766;2023-02-02T03:50:52;101605.53;;;6.41;100.00
62051;BME280;48008;51.204;6.766;2023-02-02T03:53:19;101605.00;;;6.36;100.00
62051;BME280;48008;51.204;6.766;2023-02-02T03:55:46;101606.25;;;6.43;100.00
62051;BME280;48008;51.204;6.766;2023-02-02T03:58:13;101606.16;;;6.45;100.00
62051;BME280;48008;51.204;6.766;2023-02-02T04:00:40;101607.53;;;6.50;100.00
62051;BME280;48008;51.204;6.766;2023-02-02T04:03:07;101611.72;;;6.40;100.00
62051;BME280;48008;51.204;6.766;2023-02-02T04:05:34;101613.34;;;6.43;100.00
62051;BME280;48008;51.204;6.766;2023-02-02T04:08:04;101612.59;;;6.41;100.00
62051;BME280;48008;51.204;6.766;2023-02-02T04:10:31;101615.88;;;6.31;100.00
62051;BME280;48008;51.204;6.766;2023-02-02T04:12:57;101617.53;;;6.45;100.00
62051;BME280;48008;51.204;6.766;2023-02-02T04:15:24;101620.91;;;6.47;100.00
62051;BME280;48008;51.204;6.766;2023-02-02T04:17:51;101614.50;;;6.39;100.00
62051;BME280;48008;51.204;6.766;2023-02-02T04:20:17;101622.72;;;6.47;100.00
62051;BME280;48008;51.204;6.766;2023-02-02T04:22:45;101624.31;;;6.49;100.00
62051;BME280;48008;51.204;6.766;2023-02-02T04:25:13;101621.78;;;6.48;100.00
62051;BME280;48008;51.204;6.766;2023-02-02T04:27:39;101619.44;;;6.56;100.00
62051;BME280;48008;51.204;6.766;2023-02-02T04:30:06;101623.44;;;6.49;100.00
62051;BME280;48008;51.204;6.766;2023-02-02T04:32:34;101628.41;;;6.53;100.00
62051;BME280;48008;51.204;6.766;2023-02-02T04:35:01;101630.72;;;6.58;100.00
62051;BME280;48008;51.204;6.766;2023-02-02T04:37:30;101636.84;;;6.59;100.00
62051;BME280;48008;51.204;6.766;2023-02-02T04:39:56;101640.63;;;6.67;100.00
62051;BME280;48008;51.204;6.766;2023-02-02T04:42:24;101646.31;;;6.61;100.00
62051;BME280;48008;51.204;6.766;2023-02-02T04:44:50;101645.50;;;6.61;100.00
62051;BME280;48008;51.204;6.766;2023-02-02T04:47:17;101639.78;;;6.67;100.00
62051;BME280;48008;51.204;6.766;2023-02-02T04:49:44;101644.97;;;6.68;100.00
62051;BME280;48008;51.204;6.766;2023-02-02T04:52:10;101645.50;;;6.61;100.00
62051;BME280;48008;51.204;6.766;2023-02-02T04:54:37;101652.34;;;6.63;100.00
62051;BME280;48008;51.204;6.766;2023-02-02T04:57:04;101634.84;;;6.62;100.00
62051;BME280;48008;51.204;6.766;2023-02-02T04:59:30;101637.88;;;6.56;100.00
62051;BME280;48008;51.204;6.766;2023-02-02T05:01:59;101642.00;;;6.60;100.00
62051;BME280;48008;51.204;6.766;2023-02-02T05:04:26;101649.81;;;6.62;100.00
62051;BME280;48008;51.204;6.766;2023-02-02T05:06:53;101647.25;;;6.73;100.00
62051;BME280;48008;51.204;6.766;2023-02-02T05:09:20;101649.28;;;6.69;100.00
62051;BME280;48008;51.204;6.766;2023-02-02T05:11:47;101664.47;;;6.66;100.00
62051;BME280;48008;51.204;6.766;2023-02-02T05:14:13;101663.09;;;6.60;100.00
62051;BME280;48008;51.204;6.766;2023-02-02T05:16:43;101653.94;;;6.66;100.00
62051;BME280;48008;51.204;6.766;2023-02-02T05:19:11;101657.59;;;6.76;100.00
62051;BME280;48008;51.204;6.766;2023-02-02T05:21:38;101649.16;;;6.58;100.00
62051;BME280;48008;51.204;6.766;2023-02-02T05:24:05;101644.31;;;6.65;100.00
62051;BME280;48008;51.204;6.766;2023-02-02T05:26:32;101641.50;;;6.55;100.00
62051;BME280;48008;51.204;6.766;2023-02-02T05:28:59;101638.31;;;6.50;100.00
62051;BME280;48008;51.204;6.766;2023-02-02T05:31:25;101626.41;;;6.57;100.00
62051;BME280;48008;51.204;6.766;2023-02-02T05:33:52;101643.78;;;6.60;100.00
62051;BME280;48008;51.204;6.766;2023-02-02T05:36:19;101638.72;;;6.57;100.00
62051;BME280;48008;51.204;6.766;2023-02-02T05:38:45;101647.16;;;6.62;100.00
62051;BME280;48008;51.204;6.766;2023-02-02T05:41:12;101640.41;;;6.70;100.00
62051;BME280;48008;51.204;6.766;2023-02-02T05:43:39;101629.69;;;6.61;100.00
62051;BME280;48008;51.204;6.766;2023-02-02T05:46:06;101626.28;;;6.71;100.00
62051;BME280;48008;51.204;6.766;2023-02-02T05:48:33;101631.16;;;6.65;100.00
62051;BME280;48008;51.204;6.766;2023-02-02T05:51:14;101632.41;;;6.72;100.00
62051;BME280;48008;51.204;6.766;2023-02-02T05:53:42;101638.84;;;6.68;100.00
62051;BME280;48008;51.204;6.766;2023-02-02T05:56:11;101648.53;;;6.67;100.00
62051;BME280;48008;51.204;6.766;2023-02-02T05:58:38;101645.50;;;6.61;100.00
62051;BME280;48008;51.204;6.766;2023-02-02T06:01:05;101660.44;;;6.60;100.00
62051;BME280;48008;51.204;6.766;2023-02-02T06:03:32;101656.56;;;6.66;100.00
62051;BME280;48008;51.204;6.766;2023-02-02T06:05:58;101661.50;;;6.70;100.00
62051;BME280;48008;51.204;6.766;2023-02-02T06:08:25;101670.59;;;6.66;100.00
62051;BME280;48008;51.204;6.766;2023-02-02T06:10:52;101660.75;;;6.81;100.00
62051;BME280;48008;51.204;6.766;2023-02-02T06:13:18;101672.69;;;6.61;100.00
62051;BME280;48008;51.204;6.766;2023-02-02T06:15:45;101673.63;;;6.73;100.00
62051;BME280;48008;51.204;6.766;2023-02-02T06:18:12;101674.78;;;6.69;100.00
62051;BME280;48008;51.204;6.766;2023-02-02T06:20:39;101674.59;;;6.72;100.00
62051;BME280;48008;51.204;6.766;2023-02-02T06:23:05;101671.13;;;6.71;100.00
62051;BME280;48008;51.204;6.766;2023-02-02T06:25:32;101686.41;;;6.66;100.00
62051;BME280;48008;51.204;6.766;2023-02-02T06:28:00;101680.81;;;6.58;100.00
62051;BME280;48008;51.204;6.766;2023-02-02T06:30:26;101683.25;;;6.61;100.00
62051;BME280;48008;51.204;6.766;2023-02-02T06:32:53;101691.69;;;6.66;100.00
62051;BME280;48008;51.204;6.766;2023-02-02T06:35:20;101678.06;;;6.60;100.00
62051;BME280;48008;51.204;6.766;2023-02-02T06:37:46;101683.25;;;6.61;100.00
62051;BME280;48008;51.204;6.766;2023-02-02T06:40:14;101682.94;;;6.66;100.00
62051;BME280;48008;51.204;6.766;2023-02-02T06:42:41;101677.13;;;6.61;100.00
62051;BME280;48008;51.204;6.766;2023-02-02T06:45:09;101687.69;;;6.61;100.00
62051;BME280;48008;51.204;6.766;2023-02-02T06:47:35;101690.94;;;6.51;100.00
62051;BME280;48008;51.204;6.766;2023-02-02T06:50:03;101691.03;;;6.50;100.00
62051;BME280;48008;51.204;6.766;2023-02-02T06:52:30;101687.88;;;6.45;100.00
62051;BME280;48008;51.204;6.766;2023-02-02T06:54:56;101694.09;;;6.57;100.00
62051;BME280;48008;51.204;6.766;2023-02-02T06:57:23;101690.81;;;6.53;100.00
62051;BME280;48008;51.204;6.766;2023-02-02T06:59:50;101703.59;;;6.46;100.00
62051;BME280;48008;51.204;6.766;2023-02-02T07:02:17;101699.34;;;6.57;100.00
62051;BME280;48008;51.204;6.766;2023-02-02T07:04:44;101696.53;;;6.60;100.00
62051;BME280;48008;51.204;6.766;2023-02-02T07:07:11;101701.06;;;6.58;100.00
62051;BME280;48008;51.204;6.766;2023-02-02T07:09:38;101711.41;;;6.61;100.00
62051;BME280;48008;51.204;6.766;2023-02-02T07:12:05;101704.13;;;6.51;100.00
62051;BME280;48008;51.204;6.766;2023-02-02T07:14:31;101704.88;;;6.53;100.00
62051;BME280;48008;51.204;6.766;2023-02-02T07:16:58;101711.41;;;6.61;100.00
62051;BME280;48008;51.204;6.766;2023-02-02T07:19:24;101713.50;;;6.56;100.00
62051;BME280;48008;51.204;6.766;2023-02-02T07:21:52;101705.41;;;6.59;100.00
62051;BME280;48008;51.204;6.766;2023-02-02T07:24:18;101710.03;;;6.55;100.00
62051;BME280;48008;51.204;6.766;2023-02-02T07:26:45;101710.44;;;6.49;100.00
62051;BME280;48008;51.204;6.766;2023-02-02T07:29:12;101706.31;;;6.45;100.00
62051;BME280;48008;51.204;6.766;2023-02-02T07:31:40;101714.22;;;6.45;100.00
62051;BME280;48008;51.204;6.766;2023-02-02T07:34:07;101720.03;;;6.50;100.00
62051;BME280;48008;51.204;6.766;2023-02-02T07:36:34;101719.53;;;6.58;100.00
62051;BME280;48008;51.204;6.766;2023-02-02T07:39:01;101718.56;;;6.46;100.00
62051;BME280;48008;51.204;6.766;2023-02-02T07:41:30;101710.25;;;6.52;100.00
62051;BME280;48008;51.204;6.766;2023-02-02T07:43:57;101730.03;;;6.45;100.00
62051;BME280;48008;51.204;6.766;2023-02-02T07:46:24;101729.31;;;6.56;100.00
62051;BME280;48008;51.204;6.766;2023-02-02T07:48:53;101722.97;;;6.45;100.00
62051;BME280;48008;51.204;6.766;2023-02-02T07:51:22;101726.06;;;6.52;100.00
62051;BME280;48008;51.204;6.766;2023-02-02T07:53:51;101724.88;;;6.56;100.00
62051;BME280;48008;51.204;6.766;2023-02-02T07:56:20;101736.78;;;6.49;100.00
62051;BME280;48008;51.204;6.766;2023-02-02T07:58:50;101726.88;;;6.52;100.00
62051;BME280;48008;51.204;6.766;2023-02-02T08:01:17;101731.22;;;6.53;100.00
62051;BME280;48008;51.204;6.766;2023-02-02T08:03:45;101720.59;;;6.55;100.00
62051;BME280;48008;51.204;6.766;2023-02-02T08:06:22;101731.22;;;6.53;100.00
62051;BME280;48008;51.204;6.766;2023-02-02T08:08:50;101725.00;;;6.54;100.00
62051;BME280;48008;51.204;6.766;2023-02-02T08:11:19;101731.03;;;6.69;100.00
62051;BME280;48008;51.204;6.766;2023-02-02T08:13:48;101721.22;;;6.71;100.00
62051;BME280;48008;51.204;6.766;2023-02-02T08:16:16;101729.22;;;6.57;100.00
62051;BME280;48008;51.204;6.766;2023-02-02T08:18:42;101737.88;;;6.59;100.00
62051;BME280;48008;51.204;6.766;2023-02-02T08:21:10;101742.41;;;6.57;100.00
62051;BME280;48008;51.204;6.766;2023-02-02T08:23:38;101747.59;;;6.59;100.00
62051;BME280;48008;51.204;6.766;2023-02-02T08:26:09;101737.13;;;6.44;100.00
62051;BME280;48008;51.204;6.766;2023-02-02T08:28:37;101740.31;;;6.49;100.00
62051;BME280;48008;51.204;6.766;2023-02-02T08:31:08;101744.81;;;6.60;100.00
62051;BME280;48008;51.204;6.766;2023-02-02T08:33:35;101747.25;;;6.50;100.00
62051;BME280;48008;51.204;6.766;2023-02-02T08:36:03;101745.34;;;6.65;100.00
62051;BME280;48008;51.204;6.766;2023-02-02T08:38:30;101750.00;;;6.62;100.00
62051;BME280;48008;51.204;6.766;2023-02-02T08:41:04;101753.88;;;6.56;100.00
62051;BME280;48008;51.204;6.766;2023-02-02T08:43:31;101754.63;;;6.58;100.00
62051;BME280;48008;51.204;6.766;2023-02-02T08:45:57;101770.78;;;6.66;100.00
62051;BME280;48008;51.204;6.766;2023-02-02T08:48:25;101770.88;;;6.65;100.00
62051;BME280;48008;51.204;6.766;2023-02-02T08:50:53;101766.78;;;6.61;100.00
62051;BME280;48008;51.204;6.766;2023-02-02T08:53:21;101782.19;;;6.67;100.00
62051;BME280;48008;51.204;6.766;2023-02-02T08:55:57;101761.50;;;6.61;100.00
62051;BME280;48008;51.204;6.766;2023-02-02T08:58:25;101767.81;;;6.58;100.00
62051;BME280;48008;51.204;6.766;2023-02-02T09:00:52;101767.63;;;6.61;100.00
62051;BME280;48008;51.204;6.766;2023-02-02T09:03:19;101778.28;;;6.72;100.00
62051;BME280;48008;51.204;6.766;2023-02-02T09:05:46;101781.34;;;6.66;100.00
62051;BME280;48008;51.204;6.766;2023-02-02T09:08:14;101782.28;;;6.65;100.00
62051;BME280;48008;51.204;6.766;2023-02-02T09:10:40;101778.34;;;6.58;100.00
62051;BME280;48008;51.204;6.766;2023-02-02T09:13:07;101794.59;;;6.52;100.00
62051;BME280;48008;51.204;6.766;2023-02-02T09:15:34;101786.25;;;6.58;100.00
62051;BME280;48008;51.204;6.766;2023-02-02T09:18:00;101798.72;;;6.56;100.00
62051;BME280;48008;51.204;6.766;2023-02-02T09:20:27;101797.78;;;6.57;100.00
62051;BME280;48008;51.204;6.766;2023-02-02T09:22:55;101808.88;;;6.62;100.00
62051;BME280;48008;51.204;6.766;2023-02-02T09:25:23;101814.53;;;6.56;100.00
62051;BME280;48008;51.204;6.766;2023-02-02T09:27:52;101828.34;;;6.60;100.00
62051;BME280;48008;51.204;6.766;2023-02-02T09:30:19;101822.75;;;6.51;100.00
62051;BME280;48008;51.204;6.766;2023-02-02T09:32:48;101832.06;;;6.57;100.00
62051;BME280;48008;51.204;6.766;2023-02-02T09:35:16;101836.69;;;6.53;100.00
62051;BME280;48008;51.204;6.766;2023-02-02T09:37:42;101843.34;;;6.59;100.00
62051;BME280;48008;51.204;6.766;2023-02-02T09:40:15;101845.22;;;6.57;100.00
62051;BME280;48008;51.204;6.766;2023-02-02T09:42:59;101849.88;;;6.53;100.00
62051;BME280;48008;51.204;6.766;2023-02-02T09:45:40;101850.69;;;6.54;100.00
62051;BME280;48008;51.204;6.766;2023-02-02T09:48:34;101857.44;;;6.58;100.00
62051;BME280;48008;51.204;6.766;2023-02-02T09:51:11;101860.41;;;6.53;100.00
62051;BME280;48008;51.204;6.766;2023-02-02T09:53:44;101858.50;;;6.56;100.00
62051;BME280;48008;51.204;6.766;2023-02-02T09:56:26;101877.50;;;6.61;100.00
62051;BME280;48008;51.204;6.766;2023-02-02T09:58:58;101870.25;;;6.64;100.00
62051;BME280;48008;51.204;6.766;2023-02-02T10:01:41;101874.00;;;6.60;100.00
62051;BME280;48008;51.204;6.766;2023-02-02T10:04:32;101881.72;;;6.63;100.00
62051;BME280;48008;51.204;6.766;2023-02-02T10:07:07;101887.13;;;6.75;100.00
62051;BME280;48008;51.204;6.766;2023-02-02T10:09:46;101887.69;;;6.80;100.00
62051;BME280;48008;51.204;6.766;2023-02-02T10:18:24;101892.63;;;6.71;100.00
62051;BME280;48008;51.204;6.766;2023-02-02T10:21:00;101893.38;;;6.73;100.00
62051;BME280;48008;51.204;6.766;2023-02-02T10:23:35;101898.34;;;6.78;100.00
62051;BME280;48008;51.204;6.766;2023-02-02T10:26:10;101898.13;;;6.81;100.00
62051;BME280;48008;51.204;6.766;2023-02-02T10:28:49;101911.88;;;6.86;100.00
62051;BME280;48008;51.204;6.766;2023-02-02T10:37:32;101916.34;;;6.99;100.00
62051;BME280;48008;51.204;6.766;2023-02-02T10:40:58;101920.75;;;6.98;100.00
62051;BME280;48008;51.204;6.766;2023-02-02T10:43:25;101907.19;;;7.04;100.00
62051;BME280;48008;51.204;6.766;2023-02-02T10:52:00;101919.53;;;7.17;100.00
62051;BME280;48008;51.204;6.766;2023-02-02T10:54:52;101928.50;;;7.14;100.00
62051;BME280;48008;51.204;6.766;2023-02-02T10:57:33;101914.06;;;7.20;100.00
62051;BME280;48008;51.204;6.766;2023-02-02T11:00:24;101917.84;;;7.16;100.00
62051;BME280;48008;51.204;6.766;2023-02-02T11:02:55;101915.31;;;7.14;100.00
62051;BME280;48008;51.204;6.766;2023-02-02T11:05:26;101915.84;;;7.06;100.00
62051;BME280;48008;51.204;6.766;2023-02-02T11:08:19;101918.16;;;7.11;100.00
62051;BME280;48008;51.204;6.766;2023-02-02T11:10:49;101921.97;;;7.20;100.00
62051;BME280;48008;51.204;6.766;2023-02-02T11:13:30;101925.66;;;7.17;100.00
62051;BME280;48008;51.204;6.766;2023-02-02T11:18:51;101920.94;;;7.22;100.00
62051;BME280;48008;51.204;6.766;2023-02-02T11:21:24;101922.50;;;7.25;100.00
62051;BME280;48008;51.204;6.766;2023-02-02T11:26:52;101920.72;;;7.25;100.00
62051;BME280;48008;51.204;6.766;2023-02-02T11:29:28;101935.50;;;7.28;100.00
62051;BME280;48008;51.204;6.766;2023-02-02T11:31:56;101932.63;;;7.18;100.00
62051;BME280;48008;51.204;6.766;2023-02-02T11:34:25;101926.31;;;7.21;100.00
62051;BME280;48008;51.204;6.766;2023-02-02T11:37:19;101930.44;;;7.25;100.00
62051;BME280;48008;51.204;6.766;2023-02-02T11:39:47;101928.63;;;7.25;100.00
62051;BME280;48008;51.204;6.766;2023-02-02T11:42:16;101915.88;;;7.32;100.00
62051;BME280;48008;51.204;6.766;2023-02-02T11:44:47;101914.06;;;7.33;100.00
62051;BME280;48008;51.204;6.766;2023-02-02T11:47:31;101917.13;;;7.39;99.93
62051;BME280;48008;51.204;6.766;2023-02-02T11:50:01;101909.84;;;7.43;100.00
62051;BME280;48008;51.204;6.766;2023-02-02T11:52:32;101918.50;;;7.45;99.54
62051;BME280;48008;51.204;6.766;2023-02-02T11:55:02;101896.97;;;7.38;99.19
62051;BME280;48008;51.204;6.766;2023-02-02T11:57:34;101913.75;;;7.37;100.00
62051;BME280;48008;51.204;6.766;2023-02-02T12:00:17;101904.56;;;7.43;99.54
62051;BME280;48008;51.204;6.766;2023-02-02T12:02:47;101906.59;;;7.52;99.58
62051;BME280;48008;51.204;6.766;2023-02-02T12:08:01;101901.84;;;7.57;97.95
62051;BME280;48008;51.204;6.766;2023-02-02T12:10:41;101897.81;;;7.64;98.17
62051;BME280;48008;51.204;6.766;2023-02-02T12:13:26;101903.19;;;7.63;97.41
62051;BME280;48008;51.204;6.766;2023-02-02T12:16:13;101915.22;;;7.67;97.46
62051;BME280;48008;51.204;6.766;2023-02-02T12:24:28;101908.91;;;7.69;96.72
62051;BME280;48008;51.204;6.766;2023-02-02T12:27:23;101914.59;;;7.76;96.39
62051;BME280;48008;51.204;6.766;2023-02-02T12:30:13;101925.91;;;7.78;96.55
62051;BME280;48008;51.204;6.766;2023-02-02T12:32:52;101911.66;;;7.81;95.28
62051;BME280;48008;51.204;6.766;2023-02-02T12:35:47;101906.38;;;7.81;94.79
62051;BME280;48008;51.204;6.766;2023-02-02T12:41:39;101906.56;;;7.78;93.86
62051;BME280;48008;51.204;6.766;2023-02-02T12:44:31;101910.91;;;7.92;93.41
62051;BME280;48008;51.204;6.766;2023-02-02T12:47:27;101908.56;;;7.87;93.46
62051;BME280;48008;51.204;6.766;2023-02-02T12:50:59;101907.94;;;7.83;93.97
62051;BME280;48008;51.204;6.766;2023-02-02T12:56:35;101904.00;;;7.89;93.85
62051;BME280;48008;51.204;6.766;2023-02-02T12:59:35;101897.78;;;7.90;93.78
62051;BME280;48008;51.204;6.766;2023-02-02T13:05:45;101903.50;;;7.97;92.81
62051;BME280;48008;51.204;6.766;2023-02-02T13:08:19;101904.31;;;7.97;93.41
62051;BME280;48008;51.204;6.766;2023-02-02T13:10:52;101912.16;;;7.99;92.60
62051;BME280;48008;51.204;6.766;2023-02-02T13:13:28;101906.75;;;7.87;93.85
62051;BME280;48008;51.204;6.766;2023-02-02T13:16:05;101910.03;;;7.91;93.34
62051;BME280;48008;51.204;6.766;2023-02-02T13:18:39;101910.78;;;7.93;93.39
62051;BME280;48008;51.204;6.766;2023-02-02T13:21:13;101907.19;;;7.94;93.55
62051;BME280;48008;51.204;6.766;2023-02-02T13:23:46;101916.47;;;7.87;94.05
62051;BME280;48008;51.204;6.766;2023-02-02T13:26:18;101911.00;;;7.90;94.14
62051;BME280;48008;51.204;6.766;2023-02-02T13:28:52;101908.25;;;7.92;93.61
62051;BME280;48008;51.204;6.766;2023-02-02T13:31:29;101907.19;;;7.94;94.31
62051;BME280;48008;51.204;6.766;2023-02-02T13:34:06;101909.41;;;7.87;94.68
62051;BME280;48008;51.204;6.766;2023-02-02T13:36:42;101911.63;;;7.94;93.99
62051;BME280;48008;51.204;6.766;2023-02-02T13:39:17;101918.09;;;7.90;94.03
62051;BME280;48008;51.204;6.766;2023-02-02T13:41:46;101930.34;;;7.78;94.99
62051;BME280;48008;51.204;6.766;2023-02-02T13:44:22;101921.13;;;7.83;94.96
62051;BME280;48008;51.204;6.766;2023-02-02T13:46:55;101925.38;;;7.86;94.29
62051;BME280;48008;51.204;6.766;2023-02-02T13:49:29;101930.03;;;7.82;95.09
62051;BME280;48008;51.204;6.766;2023-02-02T13:52:23;101917.22;;;7.89;94.60
62051;BME280;48008;51.204;6.766;2023-02-02T13:55:15;101932.88;;;7.79;94.92
62051;BME280;48008;51.204;6.766;2023-02-02T14:00:29;101929.59;;;7.76;98.65
62051;BME280;48008;51.204;6.766;2023-02-02T14:03:03;101934.88;;;7.76;99.93
62051;BME280;48008;51.204;6.766;2023-02-02T14:05:35;101926.22;;;7.74;100.00
62051;BME280;48008;51.204;6.766;2023-02-02T14:08:06;101924.53;;;7.60;100.00
62051;BME280;48008;51.204;6.766;2023-02-02T14:10:43;101918.63;;;7.56;100.00
62051;BME280;48008;51.204;6.766;2023-02-02T14:13:25;101916.72;;;7.58;100.00